sensor_id;sensor_type;location;lat;lon;timestamp;P1;durP1;ratioP1;P2;durP2;ratioP2
4533;SDS011;2279;51.448;7.306;2023-07-20T00:01:25;9.30;;;8.40;;
4533;SDS011;2279;51.448;7.306;2023-07-20T00:03:54;9.57;;;8.47;;
4533;SDS011;2279;51.448;7.306;2023-07-20T00:06:21;9.63;;;8.63;;
4533;SDS011;2279;51.448;7.306;2023-07-20T00:08:47;12.90;;;9.80;;
4533;SDS011;2279;51.448;7.306;2023-07-20T00:11:13;10.80;;;8.13;;
4533;SDS011;2279;51.448;7.306;2023-07-20T00:13:39;10.50;;;8.73;;
4533;SDS011;2279;51.448;7.306;2023-07-20T00:16:05;10.00;;;8.53;;
4533;SDS011;2279;51.448;7.306;2023-07-20T00:18:31;10.60;;;9.20;;
4533;SDS011;2279;51.448;7.306;2023-07-20T00:20:57;11.30;;;8.80;;
4533;SDS011;2279;51.448;7.306;2023-07-20T00:23:24;9.50;;;8.60;;
4533;SDS011;2279;51.448;7.306;2023-07-20T00:25:50;8.13;;;7.37;;
4533;SDS011;2279;51.448;7.306;2023-07-20T00:28:16;12.10;;;8.17;;
4533;SDS011;2279;51.448;7.306;2023-07-20T00:30:42;11.40;;;8.17;;
4533;SDS011;2279;51.448;7.306;2023-07-20T00:33:10;10.00;;;9.10;;
4533;SDS011;2279;51.448;7.306;2023-07-20T00:35:36;15.63;;;9.03;;
4533;SDS011;2279;51.448;7.306;2023-07-20T00:38:02;9.50;;;7.80;;
4533;SDS011;2279;51.448;7.306;2023-07-20T00:40:28;15.07;;;9.10;;
4533;SDS011;2279;51.448;7.306;2023-07-20T00:42:54;11.90;;;7.97;;
4533;SDS011;2279;51.448;7.306;2023-07-20T00:45:20;9.60;;;8.20;;
4533;SDS011;2279;51.448;7.306;2023-07-20T00:47:46;10.93;;;7.70;;
4533;SDS011;2279;51.448;7.306;2023-07-20T00:50:12;14.47;;;9.40;;
4533;SDS011;2279;51.448;7.306;2023-07-20T00:52:38;9.53;;;8.43;;
4533;SDS011;2279;51.448;7.306;2023-07-20T00:55:04;9.33;;;7.37;;
4533;SDS011;2279;51.448;7.306;2023-07-20T00:57:30;10.50;;;8.10;;
4533;SDS011;2279;51.448;7.306;2023-07-20T00:59:56;12.70;;;7.93;;
4533;SDS011;2279;51.448;7.306;2023-07-20T01:02:22;11.20;;;7.47;;
4533;SDS011;2279;51.448;7.306;2023-07-20T01:04:48;8.37;;;6.90;;
4533;SDS011;2279;51.448;7.306;2023-07-20T01:07:16;11.00;;;7.47;;
4533;SDS011;2279;51.448;7.306;2023-07-20T01:09:53;9.90;;;7.73;;
4533;SDS011;2279;51.448;7.306;2023-07-20T01:14:46;11.33;;;7.93;;
4533;SDS011;2279;51.448;7.306;2023-07-20T01:17:13;13.70;;;9.27;;
4533;SDS011;2279;51.448;7.306;2023-07-20T01:19:39;12.03;;;8.23;;
4533;SDS011;2279;51.448;7.306;2023-07-20T01:32:32;11.53;;;8.30;;
4533;SDS011;2279;51.448;7.306;2023-07-20T01:34:58;9.47;;;7.23;;
4533;SDS011;2279;51.448;7.306;2023-07-20T01:37:25;11.50;;;8.27;;
4533;SDS011;2279;51.448;7.306;2023-07-20T01:39:54;9.27;;;7.97;;
4533;SDS011;2279;51.448;7.306;2023-07-20T01:42:21;12.33;;;8.30;;
4533;SDS011;2279;51.448;7.306;2023-07-20T01:44:50;9.80;;;8.80;;
4533;SDS011;2279;51.448;7.306;2023-07-20T01:47:16;8.40;;;7.60;;
4533;SDS011;2279;51.448;7.306;2023-07-20T01:49:42;10.90;;;8.33;;
4533;SDS011;2279;51.448;7.306;2023-07-20T01:52:08;9.00;;;8.10;;
4533;SDS011;2279;51.448;7.306;2023-07-20T01:54:34;9.10;;;8.20;;
4533;SDS011;2279;51.448;7.306;2023-07-20T01:57:00;15.70;;;9.27;;
4533;SDS011;2279;51.448;7.306;2023-07-20T01:59:26;9.60;;;8.50;;
4533;SDS011;2279;51.448;7.306;2023-07-20T02:01:52;10.00;;;8.30;;
4533;SDS011;2279;51.448;7.306;2023-07-20T02:04:19;9.50;;;8.17;;
4533;SDS011;2279;51.448;7.306;2023-07-20T02:06:45;10.40;;;8.80;;
4533;SDS011;2279;51.448;7.306;2023-07-20T02:09:10;11.67;;;8.37;;
4533;SDS011;2279;51.448;7.306;2023-07-20T02:11:36;10.40;;;8.77;;
4533;SDS011;2279;51.448;7.306;2023-07-20T02:14:02;10.50;;;8.80;;
4533;SDS011;2279;51.448;7.306;2023-07-20T02:16:28;13.50;;;9.10;;
4533;SDS011;2279;51.448;7.306;2023-07-20T02:18:54;12.97;;;8.90;;
4533;SDS011;2279;51.448;7.306;2023-07-20T02:21:22;15.40;;;9.37;;
4533;SDS011;2279;51.448;7.306;2023-07-20T02:23:48;12.03;;;9.73;;
4533;SDS011;2279;51.448;7.306;2023-07-20T02:26:14;11.27;;;8.90;;
4533;SDS011;2279;51.448;7.306;2023-07-20T02:28:40;13.70;;;8.73;;
4533;SDS011;2279;51.448;7.306;2023-07-20T02:31:06;10.00;;;8.80;;
4533;SDS011;2279;51.448;7.306;2023-07-20T02:33:32;9.70;;;8.33;;
4533;SDS011;2279;51.448;7.306;2023-07-20T02:35:58;14.60;;;8.47;;
4533;SDS011;2279;51.448;7.306;2023-07-20T02:38:24;12.93;;;9.47;;
4533;SDS011;2279;51.448;7.306;2023-07-20T02:40:50;14.43;;;8.47;;
4533;SDS011;2279;51.448;7.306;2023-07-20T02:43:16;12.50;;;8.77;;
4533;SDS011;2279;51.448;7.306;2023-07-20T02:45:42;10.10;;;8.97;;
4533;SDS011;2279;51.448;7.306;2023-07-20T02:48:09;15.90;;;10.00;;
4533;SDS011;2279;51.448;7.306;2023-07-20T02:50:35;12.03;;;9.90;;
4533;SDS011;2279;51.448;7.306;2023-07-20T02:53:01;19.43;;;9.73;;
4533;SDS011;2279;51.448;7.306;2023-07-20T02:55:27;15.03;;;8.90;;
4533;SDS011;2279;51.448;7.306;2023-07-20T02:57:53;11.37;;;8.60;;
4533;SDS011;2279;51.448;7.306;2023-07-20T03:00:19;19.00;;;8.57;;
4533;SDS011;2279;51.448;7.306;2023-07-20T03:02:48;12.53;;;8.60;;
4533;SDS011;2279;51.448;7.306;2023-07-20T03:05:14;19.03;;;9.73;;
4533;SDS011;2279;51.448;7.306;2023-07-20T03:07:41;17.87;;;9.80;;
4533;SDS011;2279;51.448;7.306;2023-07-20T03:10:08;29.63;;;9.57;;
4533;SDS011;2279;51.448;7.306;2023-07-20T03:12:35;17.80;;;9.67;;
4533;SDS011;2279;51.448;7.306;2023-07-20T03:15:01;19.77;;;9.50;;
4533;SDS011;2279;51.448;7.306;2023-07-20T03:17:27;13.50;;;9.07;;
4533;SDS011;2279;51.448;7.306;2023-07-20T03:19:53;13.53;;;7.80;;
4533;SDS011;2279;51.448;7.306;2023-07-20T03:22:19;14.87;;;8.30;;
4533;SDS011;2279;51.448;7.306;2023-07-20T03:24:47;11.37;;;8.03;;
4533;SDS011;2279;51.448;7.306;2023-07-20T03:27:13;11.77;;;7.40;;
4533;SDS011;2279;51.448;7.306;2023-07-20T03:29:39;8.90;;;8.10;;
4533;SDS011;2279;51.448;7.306;2023-07-20T03:32:05;18.67;;;9.63;;
4533;SDS011;2279;51.448;7.306;2023-07-20T03:34:31;13.27;;;10.57;;
4533;SDS011;2279;51.448;7.306;2023-07-20T03:36:57;15.30;;;11.43;;
4533;SDS011;2279;51.448;7.306;2023-07-20T03:39:24;16.57;;;13.30;;
4533;SDS011;2279;51.448;7.306;2023-07-20T03:41:50;20.23;;;14.23;;
4533;SDS011;2279;51.448;7.306;2023-07-20T03:44:16;17.57;;;14.37;;
4533;SDS011;2279;51.448;7.306;2023-07-20T03:46:42;17.33;;;14.00;;
4533;SDS011;2279;51.448;7.306;2023-07-20T03:49:08;21.03;;;13.90;;
4533;SDS011;2279;51.448;7.306;2023-07-20T03:51:35;17.83;;;13.57;;
4533;SDS011;2279;51.448;7.306;2023-07-20T03:54:01;16.30;;;14.60;;
4533;SDS011;2279;51.448;7.306;2023-07-20T03:56:27;16.17;;;13.50;;
4533;SDS011;2279;51.448;7.306;2023-07-20T03:58:53;16.90;;;13.53;;
4533;SDS011;2279;51.448;7.306;2023-07-20T04:01:19;16.27;;;12.60;;
4533;SDS011;2279;51.448;7.306;2023-07-20T04:03:45;20.00;;;14.30;;
4533;SDS011;2279;51.448;7.306;2023-07-20T04:06:11;17.43;;;13.87;;
4533;SDS011;2279;51.448;7.306;2023-07-20T04:08:39;16.40;;;12.77;;
4533;SDS011;2279;51.448;7.306;2023-07-20T04:11:05;16.63;;;12.50;;
4533;SDS011;2279;51.448;7.306;2023-07-20T04:13:31;18.67;;;14.60;;
4533;SDS011;2279;51.448;7.306;2023-07-20T04:15:59;16.63;;;13.63;;
4533;SDS011;2279;51.448;7.306;2023-07-20T04:18:25;19.07;;;14.93;;
4533;SDS011;2279;51.448;7.306;2023-07-20T04:20:51;15.10;;;13.00;;
4533;SDS011;2279;51.448;7.306;2023-07-20T04:23:17;18.30;;;12.60;;
4533;SDS011;2279;51.448;7.306;2023-07-20T04:25:43;18.60;;;13.17;;
4533;SDS011;2279;51.448;7.306;2023-07-20T04:28:09;17.93;;;12.80;;
4533;SDS011;2279;51.448;7.306;2023-07-20T04:30:36;21.07;;;13.97;;
4533;SDS011;2279;51.448;7.306;2023-07-20T04:33:02;17.73;;;12.97;;
4533;SDS011;2279;51.448;7.306;2023-07-20T04:35:45;17.30;;;13.80;;
4533;SDS011;2279;51.448;7.306;2023-07-20T04:38:11;16.70;;;13.17;;
4533;SDS011;2279;51.448;7.306;2023-07-20T04:40:37;24.23;;;16.07;;
4533;SDS011;2279;51.448;7.306;2023-07-20T04:43:03;21.10;;;14.20;;
4533;SDS011;2279;51.448;7.306;2023-07-20T04:45:30;21.73;;;16.73;;
4533;SDS011;2279;51.448;7.306;2023-07-20T04:47:56;22.50;;;16.50;;
4533;SDS011;2279;51.448;7.306;2023-07-20T04:50:22;21.07;;;16.70;;
4533;SDS011;2279;51.448;7.306;2023-07-20T04:52:50;22.70;;;18.13;;
4533;SDS011;2279;51.448;7.306;2023-07-20T04:55:16;23.73;;;16.70;;
4533;SDS011;2279;51.448;7.306;2023-07-20T04:57:42;21.60;;;16.53;;
4533;SDS011;2279;51.448;7.306;2023-07-20T05:00:08;24.17;;;18.37;;
4533;SDS011;2279;51.448;7.306;2023-07-20T05:02:36;27.73;;;18.10;;
4533;SDS011;2279;51.448;7.306;2023-07-20T05:05:03;25.17;;;19.37;;
4533;SDS011;2279;51.448;7.306;2023-07-20T05:07:30;22.67;;;18.60;;
4533;SDS011;2279;51.448;7.306;2023-07-20T05:09:56;23.93;;;19.43;;
4533;SDS011;2279;51.448;7.306;2023-07-20T05:12:22;25.70;;;19.60;;
4533;SDS011;2279;51.448;7.306;2023-07-20T05:14:48;25.40;;;19.40;;
4533;SDS011;2279;51.448;7.306;2023-07-20T05:17:14;26.13;;;17.50;;
4533;SDS011;2279;51.448;7.306;2023-07-20T05:19:40;22.67;;;17.10;;
4533;SDS011;2279;51.448;7.306;2023-07-20T05:22:06;23.57;;;19.57;;
4533;SDS011;2279;51.448;7.306;2023-07-20T05:24:32;24.90;;;19.47;;
4533;SDS011;2279;51.448;7.306;2023-07-20T05:26:58;26.83;;;19.40;;
4533;SDS011;2279;51.448;7.306;2023-07-20T05:29:24;23.53;;;19.03;;
4533;SDS011;2279;51.448;7.306;2023-07-20T05:31:50;27.07;;;20.40;;
4533;SDS011;2279;51.448;7.306;2023-07-20T05:34:16;25.13;;;19.83;;
4533;SDS011;2279;51.448;7.306;2023-07-20T05:39:27;25.30;;;19.70;;
4533;SDS011;2279;51.448;7.306;2023-07-20T05:41:53;23.17;;;18.47;;
4533;SDS011;2279;51.448;7.306;2023-07-20T05:44:19;25.33;;;18.60;;
4533;SDS011;2279;51.448;7.306;2023-07-20T05:46:45;20.83;;;16.60;;
4533;SDS011;2279;51.448;7.306;2023-07-20T05:49:11;20.10;;;16.50;;
4533;SDS011;2279;51.448;7.306;2023-07-20T05:51:36;20.87;;;16.47;;
4533;SDS011;2279;51.448;7.306;2023-07-20T05:54:02;19.23;;;15.13;;
4533;SDS011;2279;51.448;7.306;2023-07-20T05:56:28;23.07;;;16.67;;
4533;SDS011;2279;51.448;7.306;2023-07-20T05:58:54;23.90;;;18.30;;
4533;SDS011;2279;51.448;7.306;2023-07-20T06:01:20;30.40;;;17.30;;
4533;SDS011;2279;51.448;7.306;2023-07-20T06:03:46;18.10;;;15.47;;
4533;SDS011;2279;51.448;7.306;2023-07-20T06:06:13;16.87;;;15.07;;
4533;SDS011;2279;51.448;7.306;2023-07-20T06:08:40;16.20;;;14.50;;
4533;SDS011;2279;51.448;7.306;2023-07-20T06:11:05;17.67;;;14.10;;
4533;SDS011;2279;51.448;7.306;2023-07-20T06:13:31;20.10;;;13.47;;
4533;SDS011;2279;51.448;7.306;2023-07-20T06:15:57;18.90;;;15.20;;
4533;SDS011;2279;51.448;7.306;2023-07-20T06:18:23;18.20;;;14.83;;
4533;SDS011;2279;51.448;7.306;2023-07-20T06:20:50;18.40;;;13.63;;
4533;SDS011;2279;51.448;7.306;2023-07-20T06:23:16;17.27;;;14.53;;
4533;SDS011;2279;51.448;7.306;2023-07-20T06:25:42;16.67;;;13.87;;
4533;SDS011;2279;51.448;7.306;2023-07-20T06:28:08;15.33;;;13.73;;
4533;SDS011;2279;51.448;7.306;2023-07-20T06:30:34;19.20;;;15.70;;
4533;SDS011;2279;51.448;7.306;2023-07-20T06:33:00;17.00;;;14.17;;
4533;SDS011;2279;51.448;7.306;2023-07-20T06:35:26;16.87;;;14.60;;
4533;SDS011;2279;51.448;7.306;2023-07-20T06:37:52;15.23;;;13.47;;
4533;SDS011;2279;51.448;7.306;2023-07-20T06:40:18;16.47;;;13.97;;
4533;SDS011;2279;51.448;7.306;2023-07-20T06:42:44;20.43;;;14.80;;
4533;SDS011;2279;51.448;7.306;2023-07-20T06:45:10;16.33;;;14.60;;
4533;SDS011;2279;51.448;7.306;2023-07-20T06:47:39;17.10;;;14.37;;
4533;SDS011;2279;51.448;7.306;2023-07-20T06:50:06;16.50;;;14.80;;
4533;SDS011;2279;51.448;7.306;2023-07-20T06:52:32;23.20;;;15.27;;
4533;SDS011;2279;51.448;7.306;2023-07-20T06:54:58;16.60;;;14.47;;
4533;SDS011;2279;51.448;7.306;2023-07-20T06:57:25;14.90;;;13.30;;
4533;SDS011;2279;51.448;7.306;2023-07-20T06:59:51;15.93;;;13.03;;
4533;SDS011;2279;51.448;7.306;2023-07-20T07:02:18;18.97;;;13.80;;
4533;SDS011;2279;51.448;7.306;2023-07-20T07:04:44;20.00;;;14.03;;
4533;SDS011;2279;51.448;7.306;2023-07-20T07:07:11;13.57;;;12.17;;
4533;SDS011;2279;51.448;7.306;2023-07-20T07:09:37;19.73;;;12.10;;
4533;SDS011;2279;51.448;7.306;2023-07-20T07:12:04;17.93;;;13.30;;
4533;SDS011;2279;51.448;7.306;2023-07-20T07:14:30;16.53;;;11.50;;
4533;SDS011;2279;51.448;7.306;2023-07-20T07:16:55;10.70;;;9.70;;
4533;SDS011;2279;51.448;7.306;2023-07-20T07:19:22;14.03;;;12.20;;
4533;SDS011;2279;51.448;7.306;2023-07-20T07:21:47;13.60;;;12.00;;
4533;SDS011;2279;51.448;7.306;2023-07-20T07:24:13;14.83;;;13.00;;
4533;SDS011;2279;51.448;7.306;2023-07-20T07:26:39;14.87;;;13.37;;
4533;SDS011;2279;51.448;7.306;2023-07-20T07:29:05;16.83;;;13.53;;
4533;SDS011;2279;51.448;7.306;2023-07-20T07:31:33;12.20;;;11.00;;
4533;SDS011;2279;51.448;7.306;2023-07-20T07:34:00;12.80;;;11.60;;
4533;SDS011;2279;51.448;7.306;2023-07-20T07:36:27;10.57;;;9.53;;
4533;SDS011;2279;51.448;7.306;2023-07-20T07:38:53;11.47;;;9.10;;
4533;SDS011;2279;51.448;7.306;2023-07-20T07:41:19;7.30;;;6.70;;
4533;SDS011;2279;51.448;7.306;2023-07-20T07:43:45;8.33;;;6.00;;
4533;SDS011;2279;51.448;7.306;2023-07-20T07:46:11;7.70;;;7.00;;
4533;SDS011;2279;51.448;7.306;2023-07-20T07:48:38;7.33;;;6.60;;
4533;SDS011;2279;51.448;7.306;2023-07-20T07:51:04;8.13;;;7.33;;
4533;SDS011;2279;51.448;7.306;2023-07-20T07:53:30;9.90;;;5.97;;
4533;SDS011;2279;51.448;7.306;2023-07-20T07:55:57;6.53;;;6.00;;
4533;SDS011;2279;51.448;7.306;2023-07-20T07:58:23;6.50;;;5.77;;
4533;SDS011;2279;51.448;7.306;2023-07-20T08:00:49;6.30;;;5.70;;
4533;SDS011;2279;51.448;7.306;2023-07-20T08:03:15;6.60;;;6.00;;
4533;SDS011;2279;51.448;7.306;2023-07-20T08:05:41;6.57;;;5.60;;
4533;SDS011;2279;51.448;7.306;2023-07-20T08:08:07;6.40;;;5.80;;
4533;SDS011;2279;51.448;7.306;2023-07-20T08:10:33;7.97;;;7.37;;
4533;SDS011;2279;51.448;7.306;2023-07-20T08:12:59;6.27;;;5.83;;
4533;SDS011;2279;51.448;7.306;2023-07-20T08:15:25;7.73;;;6.30;;
4533;SDS011;2279;51.448;7.306;2023-07-20T08:17:51;7.83;;;6.47;;
4533;SDS011;2279;51.448;7.306;2023-07-20T08:20:17;5.83;;;5.33;;
4533;SDS011;2279;51.448;7.306;2023-07-20T08:22:43;6.07;;;5.43;;
4533;SDS011;2279;51.448;7.306;2023-07-20T08:25:09;3.97;;;3.50;;
4533;SDS011;2279;51.448;7.306;2023-07-20T08:27:36;4.60;;;4.30;;
4533;SDS011;2279;51.448;7.306;2023-07-20T08:30:02;4.00;;;3.80;;
4533;SDS011;2279;51.448;7.306;2023-07-20T08:32:29;4.57;;;4.17;;
4533;SDS011;2279;51.448;7.306;2023-07-20T08:34:55;4.13;;;3.67;;
4533;SDS011;2279;51.448;7.306;2023-07-20T08:37:22;4.33;;;3.30;;
4533;SDS011;2279;51.448;7.306;2023-07-20T08:39:47;3.80;;;3.50;;
4533;SDS011;2279;51.448;7.306;2023-07-20T08:42:14;5.20;;;3.03;;
4533;SDS011;2279;51.448;7.306;2023-07-20T08:44:41;3.40;;;3.20;;
4533;SDS011;2279;51.448;7.306;2023-07-20T08:47:07;3.33;;;3.03;;
4533;SDS011;2279;51.448;7.306;2023-07-20T08:49:34;2.93;;;2.63;;
4533;SDS011;2279;51.448;7.306;2023-07-20T08:52:00;2.87;;;2.63;;
4533;SDS011;2279;51.448;7.306;2023-07-20T08:54:29;3.60;;;2.80;;
4533;SDS011;2279;51.448;7.306;2023-07-20T08:56:57;2.67;;;2.47;;
4533;SDS011;2279;51.448;7.306;2023-07-20T08:59:23;2.10;;;2.00;;
4533;SDS011;2279;51.448;7.306;2023-07-20T09:01:50;2.53;;;2.30;;
4533;SDS011;2279;51.448;7.306;2023-07-20T09:04:19;3.30;;;3.10;;
4533;SDS011;2279;51.448;7.306;2023-07-20T09:06:45;2.60;;;2.40;;
4533;SDS011;2279;51.448;7.306;2023-07-20T09:09:12;3.03;;;2.77;;
4533;SDS011;2279;51.448;7.306;2023-07-20T09:11:38;4.87;;;3.87;;
4533;SDS011;2279;51.448;7.306;2023-07-20T09:16:30;3.43;;;3.20;;
4533;SDS011;2279;51.448;7.306;2023-07-20T09:18:57;3.40;;;3.20;;
4533;SDS011;2279;51.448;7.306;2023-07-20T09:21:23;3.43;;;3.20;;
4533;SDS011;2279;51.448;7.306;2023-07-20T09:23:49;3.43;;;3.13;;
4533;SDS011;2279;51.448;7.306;2023-07-20T09:26:18;2.90;;;2.60;;
4533;SDS011;2279;51.448;7.306;2023-07-20T09:28:51;3.90;;;2.20;;
4533;SDS011;2279;51.448;7.306;2023-07-20T09:31:18;3.63;;;3.07;;
4533;SDS011;2279;51.448;7.306;2023-07-20T09:33:45;4.03;;;2.70;;
4533;SDS011;2279;51.448;7.306;2023-07-20T09:36:11;2.77;;;2.57;;
4533;SDS011;2279;51.448;7.306;2023-07-20T09:38:37;2.93;;;2.73;;
4533;SDS011;2279;51.448;7.306;2023-07-20T09:41:06;3.37;;;3.17;;
4533;SDS011;2279;51.448;7.306;2023-07-20T09:43:35;2.60;;;2.50;;
4533;SDS011;2279;51.448;7.306;2023-07-20T09:46:02;3.90;;;3.23;;
4533;SDS011;2279;51.448;7.306;2023-07-20T09:48:29;2.90;;;2.50;;
4533;SDS011;2279;51.448;7.306;2023-07-20T09:50:55;3.10;;;2.90;;
4533;SDS011;2279;51.448;7.306;2023-07-20T09:53:21;2.90;;;2.80;;
4533;SDS011;2279;51.448;7.306;2023-07-20T09:55:50;2.97;;;2.87;;
4533;SDS011;2279;51.448;7.306;2023-07-20T09:58:16;3.40;;;3.10;;
4533;SDS011;2279;51.448;7.306;2023-07-20T10:00:42;2.77;;;2.67;;
4533;SDS011;2279;51.448;7.306;2023-07-20T10:03:12;2.70;;;2.50;;
4533;SDS011;2279;51.448;7.306;2023-07-20T10:05:39;2.97;;;2.73;;
4533;SDS011;2279;51.448;7.306;2023-07-20T10:08:10;3.00;;;2.73;;
4533;SDS011;2279;51.448;7.306;2023-07-20T10:10:37;2.97;;;2.80;;
4533;SDS011;2279;51.448;7.306;2023-07-20T10:13:04;4.70;;;3.47;;
4533;SDS011;2279;51.448;7.306;2023-07-20T10:15:36;2.60;;;2.40;;
4533;SDS011;2279;51.448;7.306;2023-07-20T10:20:33;2.97;;;2.77;;
4533;SDS011;2279;51.448;7.306;2023-07-20T10:23:00;2.80;;;2.60;;
4533;SDS011;2279;51.448;7.306;2023-07-20T10:25:26;3.07;;;2.90;;
4533;SDS011;2279;51.448;7.306;2023-07-20T10:27:52;2.93;;;2.83;;
4533;SDS011;2279;51.448;7.306;2023-07-20T10:30:19;4.57;;;2.90;;
4533;SDS011;2279;51.448;7.306;2023-07-20T10:32:45;3.43;;;3.23;;
4533;SDS011;2279;51.448;7.306;2023-07-20T10:35:12;4.13;;;3.60;;
4533;SDS011;2279;51.448;7.306;2023-07-20T10:37:45;3.33;;;3.13;;
4533;SDS011;2279;51.448;7.306;2023-07-20T10:40:30;3.97;;;3.20;;
4533;SDS011;2279;51.448;7.306;2023-07-20T10:43:03;3.33;;;3.13;;
4533;SDS011;2279;51.448;7.306;2023-07-20T10:45:39;3.30;;;3.00;;
4533;SDS011;2279;51.448;7.306;2023-07-20T10:48:12;3.10;;;2.90;;
4533;SDS011;2279;51.448;7.306;2023-07-20T10:50:40;3.50;;;3.23;;
4533;SDS011;2279;51.448;7.306;2023-07-20T10:53:10;3.60;;;3.40;;
4533;SDS011;2279;51.448;7.306;2023-07-20T10:55:37;3.70;;;3.50;;
4533;SDS011;2279;51.448;7.306;2023-07-20T10:58:10;3.50;;;3.17;;
4533;SDS011;2279;51.448;7.306;2023-07-20T11:00:37;3.03;;;2.93;;
4533;SDS011;2279;51.448;7.306;2023-07-20T11:03:03;2.70;;;2.50;;
4533;SDS011;2279;51.448;7.306;2023-07-20T11:05:33;2.60;;;2.50;;
4533;SDS011;2279;51.448;7.306;2023-07-20T11:08:00;3.60;;;2.83;;
4533;SDS011;2279;51.448;7.306;2023-07-20T11:10:26;2.60;;;2.50;;
4533;SDS011;2279;51.448;7.306;2023-07-20T11:18:21;2.33;;;2.10;;
4533;SDS011;2279;51.448;7.306;2023-07-20T11:20:50;2.20;;;2.10;;
4533;SDS011;2279;51.448;7.306;2023-07-20T11:23:17;2.00;;;1.90;;
4533;SDS011;2279;51.448;7.306;2023-07-20T11:25:43;2.80;;;1.87;;
4533;SDS011;2279;51.448;7.306;2023-07-20T11:28:10;2.20;;;2.10;;
4533;SDS011;2279;51.448;7.306;2023-07-20T11:30:39;2.20;;;1.93;;
4533;SDS011;2279;51.448;7.306;2023-07-20T11:33:05;3.40;;;2.10;;
4533;SDS011;2279;51.448;7.306;2023-07-20T11:35:34;2.50;;;2.30;;
4533;SDS011;2279;51.448;7.306;2023-07-20T11:38:01;1.90;;;1.80;;
4533;SDS011;2279;51.448;7.306;2023-07-20T11:40:27;3.90;;;2.00;;
4533;SDS011;2279;51.448;7.306;2023-07-20T11:42:53;1.70;;;1.60;;
4533;SDS011;2279;51.448;7.306;2023-07-20T11:45:19;1.83;;;1.40;;
4533;SDS011;2279;51.448;7.306;2023-07-20T11:47:45;1.67;;;1.57;;
4533;SDS011;2279;51.448;7.306;2023-07-20T11:50:11;3.43;;;1.80;;
4533;SDS011;2279;51.448;7.306;2023-07-20T11:52:39;1.97;;;1.40;;
4533;SDS011;2279;51.448;7.306;2023-07-20T11:55:05;1.80;;;1.67;;
4533;SDS011;2279;51.448;7.306;2023-07-20T11:57:31;2.50;;;1.60;;
4533;SDS011;2279;51.448;7.306;2023-07-20T11:59:58;1.80;;;1.70;;
4533;SDS011;2279;51.448;7.306;2023-07-20T12:02:27;1.63;;;1.50;;
4533;SDS011;2279;51.448;7.306;2023-07-20T12:04:53;2.53;;;1.67;;
4533;SDS011;2279;51.448;7.306;2023-07-20T12:07:19;1.90;;;1.40;;
4533;SDS011;2279;51.448;7.306;2023-07-20T12:10:02;2.10;;;1.90;;
4533;SDS011;2279;51.448;7.306;2023-07-20T12:12:28;1.70;;;1.60;;
4533;SDS011;2279;51.448;7.306;2023-07-20T12:14:54;1.70;;;1.60;;
4533;SDS011;2279;51.448;7.306;2023-07-20T12:17:20;2.23;;;1.37;;
4533;SDS011;2279;51.448;7.306;2023-07-20T12:19:46;1.60;;;1.50;;
4533;SDS011;2279;51.448;7.306;2023-07-20T12:22:12;3.10;;;1.80;;
4533;SDS011;2279;51.448;7.306;2023-07-20T12:24:39;1.77;;;1.50;;
4533;SDS011;2279;51.448;7.306;2023-07-20T12:27:05;2.57;;;1.93;;
4533;SDS011;2279;51.448;7.306;2023-07-20T12:29:31;1.30;;;1.20;;
4533;SDS011;2279;51.448;7.306;2023-07-20T12:32:01;1.67;;;1.57;;
4533;SDS011;2279;51.448;7.306;2023-07-20T12:34:26;2.17;;;1.67;;
4533;SDS011;2279;51.448;7.306;2023-07-20T12:36:52;1.70;;;1.60;;
4533;SDS011;2279;51.448;7.306;2023-07-20T12:39:18;2.13;;;1.40;;
4533;SDS011;2279;51.448;7.306;2023-07-20T12:41:44;1.83;;;1.73;;
4533;SDS011;2279;51.448;7.306;2023-07-20T12:44:11;1.63;;;1.53;;
4533;SDS011;2279;51.448;7.306;2023-07-20T12:46:37;1.43;;;1.33;;
4533;SDS011;2279;51.448;7.306;2023-07-20T12:49:03;1.77;;;1.40;;
4533;SDS011;2279;51.448;7.306;2023-07-20T12:51:29;2.13;;;1.80;;
4533;SDS011;2279;51.448;7.306;2023-07-20T12:53:55;5.90;;;2.00;;
4533;SDS011;2279;51.448;7.306;2023-07-20T12:56:21;1.50;;;1.40;;
4533;SDS011;2279;51.448;7.306;2023-07-20T12:58:47;4.60;;;1.40;;
4533;SDS011;2279;51.448;7.306;2023-07-20T13:01:15;1.73;;;1.63;;
4533;SDS011;2279;51.448;7.306;2023-07-20T13:03:40;2.20;;;1.80;;
4533;SDS011;2279;51.448;7.306;2023-07-20T13:06:06;2.43;;;2.10;;
4533;SDS011;2279;51.448;7.306;2023-07-20T13:08:32;2.03;;;1.80;;
4533;SDS011;2279;51.448;7.306;2023-07-20T13:10:58;1.60;;;1.50;;
4533;SDS011;2279;51.448;7.306;2023-07-20T13:13:25;1.70;;;1.60;;
4533;SDS011;2279;51.448;7.306;2023-07-20T13:15:51;1.83;;;1.73;;
4533;SDS011;2279;51.448;7.306;2023-07-20T13:18:19;1.80;;;1.70;;
4533;SDS011;2279;51.448;7.306;2023-07-20T13:20:45;3.40;;;2.30;;
4533;SDS011;2279;51.448;7.306;2023-07-20T13:23:11;2.10;;;2.00;;
4533;SDS011;2279;51.448;7.306;2023-07-20T13:25:36;2.03;;;1.93;;
4533;SDS011;2279;51.448;7.306;2023-07-20T13:28:03;3.63;;;2.10;;
4533;SDS011;2279;51.448;7.306;2023-07-20T13:30:29;2.20;;;2.00;;
4533;SDS011;2279;51.448;7.306;2023-07-20T13:32:55;2.77;;;2.67;;
4533;SDS011;2279;51.448;7.306;2023-07-20T13:35:21;11.63;;;2.30;;
4533;SDS011;2279;51.448;7.306;2023-07-20T13:37:47;4.40;;;1.77;;
4533;SDS011;2279;51.448;7.306;2023-07-20T13:40:14;3.10;;;2.60;;
4533;SDS011;2279;51.448;7.306;2023-07-20T13:42:43;5.23;;;2.60;;
4533;SDS011;2279;51.448;7.306;2023-07-20T13:45:10;2.20;;;2.10;;
4533;SDS011;2279;51.448;7.306;2023-07-20T13:47:36;4.70;;;2.33;;
4533;SDS011;2279;51.448;7.306;2023-07-20T13:50:02;3.10;;;2.37;;
4533;SDS011;2279;51.448;7.306;2023-07-20T13:52:28;2.67;;;2.47;;
4533;SDS011;2279;51.448;7.306;2023-07-20T13:54:54;2.70;;;2.43;;
4533;SDS011;2279;51.448;7.306;2023-07-20T13:57:19;2.07;;;1.97;;
4533;SDS011;2279;51.448;7.306;2023-07-20T13:59:45;2.37;;;2.17;;
4533;SDS011;2279;51.448;7.306;2023-07-20T14:02:13;3.30;;;2.10;;
4533;SDS011;2279;51.448;7.306;2023-07-20T14:04:40;3.23;;;2.80;;
4533;SDS011;2279;51.448;7.306;2023-07-20T14:07:06;2.40;;;2.30;;
4533;SDS011;2279;51.448;7.306;2023-07-20T14:09:32;2.70;;;2.40;;
4533;SDS011;2279;51.448;7.306;2023-07-20T14:11:58;2.20;;;2.10;;
4533;SDS011;2279;51.448;7.306;2023-07-20T14:14:24;2.40;;;2.20;;
4533;SDS011;2279;51.448;7.306;2023-07-20T14:16:52;2.23;;;2.10;;
4533;SDS011;2279;51.448;7.306;2023-07-20T14:19:18;2.33;;;2.13;;
4533;SDS011;2279;51.448;7.306;2023-07-20T14:21:44;2.50;;;2.30;;
4533;SDS011;2279;51.448;7.306;2023-07-20T14:24:10;5.83;;;2.57;;
4533;SDS011;2279;51.448;7.306;2023-07-20T14:26:36;6.63;;;2.30;;
4533;SDS011;2279;51.448;7.306;2023-07-20T14:29:02;2.10;;;2.00;;
4533;SDS011;2279;51.448;7.306;2023-07-20T14:31:28;3.93;;;2.10;;
4533;SDS011;2279;51.448;7.306;2023-07-20T14:33:54;2.60;;;2.50;;
4533;SDS011;2279;51.448;7.306;2023-07-20T14:36:20;2.40;;;2.30;;
4533;SDS011;2279;51.448;7.306;2023-07-20T14:38:47;2.30;;;2.20;;
4533;SDS011;2279;51.448;7.306;2023-07-20T14:41:13;2.23;;;2.00;;
4533;SDS011;2279;51.448;7.306;2023-07-20T14:43:39;2.37;;;2.17;;
4533;SDS011;2279;51.448;7.306;2023-07-20T14:46:05;2.30;;;2.10;;
4533;SDS011;2279;51.448;7.306;2023-07-20T14:48:31;2.30;;;2.20;;
4533;SDS011;2279;51.448;7.306;2023-07-20T14:50:57;2.10;;;2.00;;
4533;SDS011;2279;51.448;7.306;2023-07-20T14:53:23;2.30;;;2.20;;
4533;SDS011;2279;51.448;7.306;2023-07-20T14:55:50;2.90;;;1.83;;
4533;SDS011;2279;51.448;7.306;2023-07-20T14:58:16;2.13;;;1.83;;
4533;SDS011;2279;51.448;7.306;2023-07-20T15:00:42;2.27;;;2.17;;
4533;SDS011;2279;51.448;7.306;2023-07-20T15:03:08;2.60;;;2.40;;
4533;SDS011;2279;51.448;7.306;2023-07-20T15:05:34;2.60;;;2.43;;
4533;SDS011;2279;51.448;7.306;2023-07-20T15:08:01;2.70;;;2.60;;
4533;SDS011;2279;51.448;7.306;2023-07-20T15:10:27;2.30;;;2.20;;
4533;SDS011;2279;51.448;7.306;2023-07-20T15:12:54;2.30;;;2.20;;
4533;SDS011;2279;51.448;7.306;2023-07-20T15:15:20;2.40;;;2.30;;
4533;SDS011;2279;51.448;7.306;2023-07-20T15:17:45;3.40;;;2.37;;
4533;SDS011;2279;51.448;7.306;2023-07-20T15:20:12;3.60;;;2.40;;
4533;SDS011;2279;51.448;7.306;2023-07-20T15:22:39;2.43;;;2.20;;
4533;SDS011;2279;51.448;7.306;2023-07-20T15:25:06;2.50;;;2.30;;
4533;SDS011;2279;51.448;7.306;2023-07-20T15:27:33;4.10;;;2.10;;